Madison, SD (57042)

7:29 AM CDT on July 10, 2014 (GMT -0500)
Madison Municipal (KMDS) Elev 1716 ft | 44.01 °N, 97.08 °W | Change Station

Current weather conditions updated 19 minutes ago

Clear
Clear
61 °F
Feels Like 61 °F
N
6
Wind Variable Wind from SSE

Today is forecast to be nearly the same temperature as yesterday. Scattered thunderstorms possible tonight.

Today
High -- | Low -- °F
--% Chance of Precip.
Yesterday
High -- | Low -- °F
Precip. -- in
5:55 AM 9:11 PM
Waxing Gibbous, 94% visible
Pressure 30.01 in
Visibility 10.0 miles
Clouds Clear
Dew Point 61 °F
Humidity 100%
Rainfall 0.00 in
Snow Depth Not available.
UV 1 out of 12
Pollen 4.50 out of 12
Air Quality Not available.
Flu Activity Sporadic
METAR KMDS 101210Z AUTO 15005KT 10SM CLR 16/16 A3001 RMK AO2

More Conditions Fewer Conditions

Pressure 30.01 in
Visibility 10.0 miles
Clouds Clear
Dew Point 61 °F
Humidity 100%
Rainfall 0.00 in
Snow Depth Not available.
UV 1 out of 12
Pollen 4.50 out of 12
Air Quality Not available.
Flu Activity Sporadic
METAR KMDS 101210Z AUTO 15005KT 10SM CLR 16/16 A3001 RMK AO2

More Conditions Fewer Conditions

10-Day Weather Forecast

Almanac

Astronomy

Jul. 10, 2014 Rise Set
Actual Time 5:55 AM CDT 9:11 PM CDT
Civil Twilight 5:19 AM CDT 9:47 PM CDT
Nautical Twilight 4:33 AM CDT 10:33 PM CDT
Astronomical Twilight 3:37 AM CDT 11:29 PM CDT
Moon 7:23 PM CDT 4:10 AM CDT
Length of Visible Light 16h 27m
Length of Day
15h 16m
Tomorrow will be 1m 19s shorter.
Waxing Gibbous, 94% of the Moon is Illuminated
Today
Waxing Gibbous
Jul 12
Full
Jul 18
Last Quarter
Jul 26
New
Aug 3
First Quarter

Today's Extremes

State Highs State Lows

Community

WunderPhotos

Upload Photos

1,732,111 photos uploaded!

Nearby

Snow Depth

Station Depth Elevation
North Rapid Creek 0 in 6130 ft
Blind Park 1 in 6890 ft

Earthquake Activity

City Distance Mag. Time & Date
No recent earthquake activity has been reported nearby.
Minimum magnitude displayed is 2.5.

Coastal Water Temperatures

Place Temperature
No Stations Reporting

Nearby Weather Stations

Station Location Temp. Dew Point Humidity Wind Precip. Elev Updated Type
Rural Canova, SD, Canova, SD 63.3 °F 62 °F 94% SE  at  9.1 mph 0.00 in / hr 1542 ft 7:29 AM CDT Rapid Fire
Volga, SD 57.6 °F 53 °F 84% East  at  0.0 mph 0.00 in / hr 1655 ft 7:27 AM CDT Normal
Valley View, Brookings, SD, Brookings, SD 60.5 °F 59 °F 94% East  at  2.3 mph 0.00 in / hr 1601 ft 7:29 AM CDT Rapid Fire
Indian Hills, Brookings, SD 60.6 °F 58 °F 91% ESE  at  0.0 mph 0.00 in / hr 1650 ft 7:24 AM CDT Normal

Show More Stations Show Fewer Stations